Welcome to Northern Hawkes Bay. New Zealand.
PWS Header
      nz Flag



Hit Counter


W3C Valid W3C Valid logo


    Wairoa

Select any of the Stations below to visit their websites.










Historic Data from Weather Underground
Select the location of interest below. Wairoa is the default. Please have patience, this Data is slow to load in.
Northern Hawkes Bay Historical Data
Daily Summary for July 25, 2017 Units:  English    Metric   Both
« Previous Day
Next Day »
Daily Weekly Monthly Yearly Custom
  High: Low: Average:
Temperature: 67.3 °F 42.4 °F 50.5 °F
Dew Point: 48.4 °F 39.7 °F 43.5 °F
Humidity: 95% 45% 79%
Wind Speed: 7.6mph 0mph 3.4mph
Wind Gust: 10.7mph - -
Wind- - WNW
Pressure: 29.7 in 29.6 in -
Precipitation: 0 in    
Historical Graphs
 
 
Tabular Data for July 25, 2017
Time Temperature Dew Point Pressure Wind Wind Speed Wind Gust Humidity Rainfall Rate (Hourly) solar
00:01 44.4 °F 40.8 °F 29.6 in NW 5.4 mph 8.3 mph 87% 0 in 0 W/m2
00:06 44.2 °F 40.6 °F 29.6 in NW 5.4 mph 7.6 mph 87% 0 in 0 W/m2
00:11 44.1 °F 40.5 °F 29.6 in NW 6 mph 9.2 mph 87% 0 in 0 W/m2
00:16 44.1 °F 40.6 °F 29.6 in NW 4.5 mph 9.2 mph 88% 0 in 0 W/m2
00:21 43.9 °F 40.6 °F 29.6 in NW 5.4 mph 8.3 mph 88% 0 in 0 W/m2
00:26 43.7 °F 40.5 °F 29.6 in NW 5.4 mph 9.2 mph 88% 0 in 0 W/m2
00:28 43.7 °F 40.5 °F 29.6 in NNW 4.5 mph 9.2 mph 88% 0 in 0 W/m2
00:33 43.9 °F 40.8 °F 29.6 in NW 5.4 mph 9.2 mph 89% 0 in 0 W/m2
00:38 44.1 °F 41 °F 29.6 in NW 4.5 mph 9.2 mph 89% 0 in 0 W/m2
00:43 44.1 °F 41 °F 29.6 in NNW 3.8 mph 9.2 mph 89% 0 in 0 W/m2
00:48 43.9 °F 40.8 °F 29.6 in NNW 3.8 mph 9.2 mph 89% 0 in 0 W/m2
00:53 43.7 °F 40.6 °F 29.6 in NNW 6 mph 9.2 mph 89% 0 in 0 W/m2
00:58 43.9 °F 40.8 °F 29.6 in NNW 5.4 mph 10.7 mph 89% 0 in 0 W/m2
01:03 43.7 °F 40.6 °F 29.6 in NNW 4.5 mph 10.7 mph 89% 0 in 0 W/m2
01:08 43.3 °F 40.3 °F 29.6 in NNW 5.4 mph 8.3 mph 89% 0 in 0 W/m2
01:13 43.3 °F 40.3 °F 29.6 in NNW 4.5 mph 7.6 mph 89% 0 in 0 W/m2
01:18 43.2 °F 40.1 °F 29.6 in NNW 4.5 mph 7.6 mph 89% 0 in 0 W/m2
01:23 43.3 °F 40.6 °F 29.6 in NNW 5.4 mph 9.2 mph 90% 0 in 0 W/m2
01:28 43.5 °F 40.8 °F 29.6 in NNW 5.4 mph 9.2 mph 90% 0 in 0 W/m2
01:33 43.3 °F 40.6 °F 29.6 in NW 4.5 mph 9.2 mph 90% 0 in 0 W/m2
01:38 43.5 °F 40.8 °F 29.6 in NW 4.5 mph 8.3 mph 90% 0 in 0 W/m2
01:43 43.3 °F 40.3 °F 29.6 in NW 4.5 mph 9.2 mph 89% 0 in 0 W/m2
01:48 43.3 °F 40.3 °F 29.6 in NNW 3.8 mph 9.2 mph 89% 0 in 0 W/m2
01:53 43.3 °F 40.3 °F 29.6 in NNW 6 mph 9.2 mph 89% 0 in 0 W/m2
01:58 43 °F 39.9 °F 29.6 in NNW 3.8 mph 8.3 mph 89% 0 in 0 W/m2
02:03 42.8 °F 39.7 °F 29.6 in NNW 3.8 mph 7.6 mph 89% 0 in 0 W/m2
02:13 42.8 °F 40.1 °F 29.6 in NNW 4.5 mph 7.6 mph 90% 0 in 0 W/m2
02:18 42.8 °F 40.1 °F 29.6 in NNW 4.5 mph 8.3 mph 90% 0 in 0 W/m2
02:23 43 °F 40.5 °F 29.6 in NNW 5.4 mph 8.3 mph 91% 0 in 0 W/m2
02:28 42.8 °F 40.5 °F 29.6 in NNW 4.5 mph 8.3 mph 91% 0 in 0 W/m2
02:33 42.8 °F 40.5 °F 29.6 in NNW 3.1 mph 8.3 mph 91% 0 in 0 W/m2
02:38 42.6 °F 40.3 °F 29.6 in NNW 3.8 mph 8.3 mph 91% 0 in 0 W/m2
02:43 42.4 °F 39.9 °F 29.6 in NNW 4.5 mph 6 mph 91% 0 in 0 W/m2
02:48 42.4 °F 40.3 °F 29.6 in NW 4.5 mph 6 mph 92% 0 in 0 W/m2
03:08 43.2 °F 40.6 °F 29.6 in NNW 4.5 mph 8.3 mph 91% 0 in 0 W/m2
03:13 43.2 °F 40.6 °F 29.6 in NNW 5.4 mph 8.3 mph 91% 0 in 0 W/m2
03:18 43.2 °F 40.5 °F 29.6 in NW 6 mph 8.3 mph 90% 0 in 0 W/m2
03:23 43.2 °F 40.1 °F 29.6 in NW 5.4 mph 8.3 mph 89% 0 in 0 W/m2
03:28 43 °F 39.9 °F 29.6 in NW 5.4 mph 9.2 mph 89% 0 in 0 W/m2
03:33 42.8 °F 40.1 °F 29.6 in NW 5.4 mph 9.2 mph 90% 0 in 0 W/m2
03:38 42.8 °F 40.1 °F 29.6 in NW 3.8 mph 8.3 mph 90% 0 in 0 W/m2
03:43 42.8 °F 40.1 °F 29.6 in NW 6 mph 7.6 mph 90% 0 in 0 W/m2
03:48 42.4 °F 39.9 °F 29.6 in NW 3.8 mph 7.6 mph 91% 0 in 0 W/m2
03:53 42.4 °F 39.9 °F 29.6 in NW 6 mph 9.2 mph 91% 0 in 0 W/m2
03:58 42.4 °F 39.9 °F 29.6 in NNW 4.5 mph 9.2 mph 91% 0 in 0 W/m2
04:03 42.6 °F 40.5 °F 29.6 in NNW 4.5 mph 9.8 mph 92% 0 in 0 W/m2
04:08 42.8 °F 40.5 °F 29.6 in NNW 6 mph 9.8 mph 91% 0 in 0 W/m2
04:13 43.2 °F 40.6 °F 29.6 in NNW 4.5 mph 10.7 mph 91% 0 in 0 W/m2
04:18 43.2 °F 40.5 °F 29.6 in NNW 5.4 mph 10.7 mph 90% 0 in 0 W/m2
04:23 43.2 °F 40.5 °F 29.6 in NW 5.4 mph 9.8 mph 90% 0 in 0 W/m2
04:28 43.2 °F 40.5 °F 29.6 in NNW 6 mph 9.8 mph 90% 0 in 0 W/m2
04:33 43.2 °F 40.5 °F 29.6 in NNW 6.9 mph 8.3 mph 90% 0 in 0 W/m2
04:38 43.2 °F 40.5 °F 29.6 in NNW 4.5 mph 8.3 mph 90% 0 in 0 W/m2
04:43 43.2 °F 40.5 °F 29.6 in NNW 3.8 mph 8.3 mph 90% 0 in 0 W/m2
04:48 43.2 °F 40.5 °F 29.6 in NW 5.4 mph 8.3 mph 90% 0 in 0 W/m2
04:53 43.5 °F 40.8 °F 29.6 in NNW 3.8 mph 8.3 mph 90% 0 in 0 W/m2
04:58 43.7 °F 41 °F 29.6 in NNW 7.6 mph 9.2 mph 90% 0 in 0 W/m2
05:03 43.7 °F 40.6 °F 29.6 in NNW 4.5 mph 9.2 mph 89% 0 in 0 W/m2
05:08 43.7 °F 40.6 °F 29.6 in NNW 5.4 mph 9.2 mph 89% 0 in 0 W/m2
05:13 43.9 °F 40.8 °F 29.6 in NNW 7.6 mph 9.8 mph 89% 0 in 0 W/m2
05:18 44.1 °F 41 °F 29.6 in NNW 6.9 mph 9.8 mph 89% 0 in 0 W/m2
05:23 44.1 °F 41 °F 29.6 in NNW 5.4 mph 9.8 mph 89% 0 in 0 W/m2
05:28 44.1 °F 41 °F 29.6 in NW 6 mph 9.8 mph 89% 0 in 0 W/m2
05:33 44.1 °F 41 °F 29.6 in NW 4.5 mph 9.8 mph 89% 0 in 0 W/m2
05:38 44.1 °F 41 °F 29.6 in NW 3.8 mph 8.3 mph 89% 0 in 0 W/m2
05:43 44.1 °F 41 °F 29.6 in NW 4.5 mph 8.3 mph 89% 0 in 0 W/m2
05:48 43.9 °F 40.8 °F 29.6 in NW 4.5 mph 8.3 mph 89% 0 in 0 W/m2
05:53 43.7 °F 40.6 °F 29.6 in NW 3.8 mph 8.3 mph 89% 0 in 0 W/m2
05:58 43.5 °F 40.5 °F 29.6 in NW 3.8 mph 7.6 mph 89% 0 in 0 W/m2
06:03 43.7 °F 41 °F 29.6 in NW 3.8 mph 7.6 mph 90% 0 in 0 W/m2
06:08 43.7 °F 41 °F 29.6 in NW 4.5 mph 7.6 mph 90% 0 in 0 W/m2
06:13 43.9 °F 41.2 °F 29.6 in NW 4.5 mph 9.8 mph 90% 0 in 0 W/m2
06:18 44.1 °F 41.4 °F 29.6 in NW 3.1 mph 9.8 mph 90% 0 in 0 W/m2
06:23 44.1 °F 41.4 °F 29.6 in NW 3.1 mph 8.3 mph 90% 0 in 0 W/m2
06:28 44.1 °F 41.4 °F 29.6 in NW 3.8 mph 6.9 mph 90% 0 in 0 W/m2
06:33 44.1 °F 41.4 °F 29.6 in NNW 5.4 mph 7.6 mph 90% 0 in 0 W/m2
06:38 44.2 °F 41.5 °F 29.6 in NW 4.5 mph 7.6 mph 90% 0 in 0 W/m2
06:43 44.4 °F 41.7 °F 29.6 in NNW 4.5 mph 7.6 mph 90% 0 in 0 W/m2
06:48 44.6 °F 41.5 °F 29.6 in NNW 5.4 mph 7.6 mph 89% 0 in 0 W/m2
06:53 44.6 °F 41.5 °F 29.6 in NNW 3.1 mph 7.6 mph 89% 0 in 0 W/m2
06:58 44.8 °F 41.7 °F 29.6 in NNW 4.5 mph 8.3 mph 89% 0 in 0 W/m2
07:03 44.8 °F 41.4 °F 29.6 in NNW 6 mph 9.2 mph 88% 0 in 0 W/m2
07:08 45 °F 41.5 °F 29.6 in NNW 6 mph 9.2 mph 88% 0 in 0 W/m2
07:13 45 °F 41.5 °F 29.6 in NNW 3.8 mph 9.2 mph 88% 0 in 0 W/m2
07:18 44.8 °F 41.4 °F 29.6 in North 4.5 mph 9.2 mph 88% 0 in 0 W/m2
07:23 44.6 °F 41.4 °F 29.6 in NNW 6 mph 7.6 mph 88% 0 in 0 W/m2
07:28 44.4 °F 41.4 °F 29.6 in NNW 5.4 mph 9.2 mph 89% 0 in 1 W/m2
07:33 44.4 °F 41.4 °F 29.6 in NNW 3.8 mph 9.2 mph 89% 0 in 3 W/m2
07:38 44.4 °F 41.4 °F 29.6 in NW 5.4 mph 7.6 mph 89% 0 in 5 W/m2
07:43 44.4 °F 41.4 °F 29.6 in NNW 3.1 mph 7.6 mph 89% 0 in 7 W/m2
07:48 44.2 °F 41.5 °F 29.6 in NNW 4.5 mph 6.9 mph 90% 0 in 11 W/m2
07:54 44.2 °F 41.5 °F 29.6 in North 2.2 mph 6.9 mph 90% 0 in 18 W/m2
07:59 44.2 °F 41.5 °F 29.6 in North 3.8 mph 6.9 mph 90% 0 in 33 W/m2
08:04 44.6 °F 41.5 °F 29.6 in NNW 4.5 mph 6 mph 89% 0 in 36 W/m2
08:09 45 °F 41.9 °F 29.6 in NNW 3.8 mph 6.9 mph 89% 0 in 25 W/m2
08:14 45.3 °F 42.3 °F 29.6 in North 4.5 mph 8.3 mph 89% 0 in 30 W/m2
08:19 45.5 °F 42.3 °F 29.6 in NNW 3.1 mph 8.3 mph 88% 0 in 36 W/m2
08:24 45.3 °F 41.7 °F 29.6 in NNW 4.5 mph 6.9 mph 87% 0 in 37 W/m2
08:29 45.1 °F 41.5 °F 29.6 in NNW 2.2 mph 6 mph 87% 0 in 37 W/m2
08:34 45.1 °F 41.5 °F 29.6 in North 3.8 mph 6 mph 87% 0 in 37 W/m2
08:39 45.3 °F 42.1 °F 29.6 in NNW 6 mph 7.6 mph 88% 0 in 45 W/m2
08:44 46 °F 42.6 °F 29.6 in NNW 3.8 mph 7.6 mph 88% 0 in 154 W/m2
08:49 47.5 °F 43.9 °F 29.6 in NNW 3.8 mph 8.3 mph 87% 0 in 167 W/m2
08:54 48 °F 43.7 °F 29.6 in NW 6 mph 8.3 mph 85% 0 in 159 W/m2
08:59 48.2 °F 43.5 °F 29.6 in NW 3.8 mph 8.3 mph 84% 0 in 184 W/m2
09:04 49.1 °F 44.2 °F 29.6 in NNW 4.5 mph 8.3 mph 83% 0 in 196 W/m2
09:09 49.8 °F 44.2 °F 29.6 in NNW 4.5 mph 7.6 mph 81% 0 in 186 W/m2
09:14 50.2 °F 43.9 °F 29.7 in NNW 3.1 mph 7.6 mph 79% 0 in 182 W/m2
09:20 50.2 °F 43.5 °F 29.7 in North 6 mph 8.3 mph 78% 0 in 205 W/m2
09:26 50.4 °F 43.9 °F 29.7 in North 5.4 mph 10.7 mph 78% 0 in 172 W/m2
09:31 50.4 °F 43.9 °F 29.7 in North 2.2 mph 10.7 mph 78% 0 in 149 W/m2
09:36 50.9 °F 44.2 °F 29.7 in NNW 4.5 mph 8.3 mph 78% 0 in 150 W/m2
09:41 51.4 °F 44.8 °F 29.7 in NNW 4.5 mph 6.9 mph 78% 0 in 100 W/m2
09:46 52.2 °F 44.8 °F 29.7 in NNW 3.8 mph 6.9 mph 76% 0 in 72 W/m2
09:51 52.9 °F 45.1 °F 29.7 in North 4.5 mph 6.9 mph 75% 0 in 69 W/m2
09:56 53.4 °F 45.3 °F 29.7 in North 3.1 mph 6.9 mph 74% 0 in 67 W/m2
10:01 54.5 °F 45.7 °F 29.7 in North 3.1 mph 6.9 mph 72% 0 in 65 W/m2
10:06 55 °F 45.9 °F 29.7 in North 3.1 mph 7.6 mph 71% 0 in 60 W/m2
10:11 55.4 °F 45.3 °F 29.7 in North 4.5 mph 7.6 mph 69% 0 in 58 W/m2
10:16 55 °F 45.3 °F 29.7 in North 1.6 mph 6.9 mph 70% 0 in 58 W/m2
10:21 55.9 °F 45.9 °F 29.7 in NNW 1.6 mph 6.9 mph 69% 0 in 61 W/m2
10:26 56.7 °F 46.2 °F 29.7 in NNW 3.8 mph 7.6 mph 68% 0 in 61 W/m2
10:31 57.4 °F 46 °F 29.7 in NNW 3.1 mph 7.6 mph 66% 0 in 61 W/m2
10:36 58.5 °F 46.8 °F 29.7 in NNW 3.8 mph 7.6 mph 65% 0 in 62 W/m2
10:41 58.5 °F 46.2 °F 29.7 in NNW 3.8 mph 6.9 mph 64% 0 in 63 W/m2
10:46 58.1 °F 46 °F 29.7 in NNW 3.8 mph 7.6 mph 64% 0 in 63 W/m2
10:51 58.1 °F 46 °F 29.7 in NNW 5.4 mph 7.6 mph 64% 0 in 65 W/m2
10:56 57.9 °F 45.9 °F 29.7 in NW 6.9 mph 8.3 mph 64% 0 in 83 W/m2
11:01 58.1 °F 46 °F 29.7 in NW 4.5 mph 8.3 mph 64% 0 in 130 W/m2
11:06 58.5 °F 46.2 °F 29.7 in NNW 5.4 mph 8.3 mph 64% 0 in 178 W/m2
11:11 58.6 °F 46.6 °F 29.7 in NNW 4.5 mph 7.6 mph 64% 0 in 208 W/m2
11:16 58.8 °F 46.8 °F 29.7 in NNW 2.2 mph 7.6 mph 64% 0 in 213 W/m2
11:21 59.4 °F 46.4 °F 29.7 in NNW 3.1 mph 7.6 mph 62% 0 in 230 W/m2
11:26 60.1 °F 47.5 °F 29.7 in NW 3.8 mph 6 mph 63% 0 in 226 W/m2
11:31 60.3 °F 47.1 °F 29.7 in NNW 1.6 mph 5.4 mph 62% 0 in 130 W/m2
11:36 60.1 °F 46.6 °F 29.7 in North 2.2 mph 5.4 mph 61% 0 in 161 W/m2
11:41 60.6 °F 47.1 °F 29.7 in North 1.6 mph 4.5 mph 61% 0 in 208 W/m2
11:46 61.5 °F 46.6 °F 29.7 in North 1.6 mph 4.5 mph 58% 0 in 193 W/m2
11:51 63 °F 47.5 °F 29.7 in North 2.2 mph 4.5 mph 57% 0 in 183 W/m2
11:56 63 °F 46.6 °F 29.7 in WNW 3.1 mph 4.5 mph 55% 0 in 183 W/m2
12:01 61.9 °F 45.7 °F 29.7 in West 3.8 mph 9.8 mph 55% 0 in 174 W/m2
12:06 61.3 °F 44.6 °F 29.7 in WSW 4.5 mph 9.8 mph 54% 0 in 163 W/m2
12:11 61.3 °F 45 °F 29.7 in SW 5.4 mph 9.2 mph 55% 0 in 150 W/m2
12:16 61.3 °F 45.5 °F 29.7 in SW 3.1 mph 9.2 mph 56% 0 in 132 W/m2
12:21 61.7 °F 45.3 °F 29.7 in SW 3.8 mph 8.3 mph 55% 0 in 117 W/m2
12:26 62.4 °F 46.6 °F 29.7 in SSW 4.5 mph 8.3 mph 56% 0 in 107 W/m2
12:31 62.1 °F 46.2 °F 29.7 in SW 6 mph 8.3 mph 56% 0 in 105 W/m2
12:36 62.1 °F 46.8 °F 29.7 in SW 6 mph 8.3 mph 57% 0 in 109 W/m2
12:41 62.1 °F 46.8 °F 29.7 in SSW 3.8 mph 8.3 mph 57% 0 in 103 W/m2
12:46 61.5 °F 45.7 °F 29.7 in SSW 5.4 mph 8.3 mph 56% 0 in 93 W/m2
13:05 62.6 °F 46.2 °F 29.7 in South 0.7 mph 6.9 mph 55% 0 in 69 W/m2
13:10 63.9 °F 46.9 °F 29.6 in South 3.1 mph 5.4 mph 54% 0 in 65 W/m2
13:15 64.2 °F 46.8 °F 29.6 in SSE 3.1 mph 6 mph 53% 0 in 62 W/m2
13:20 64.6 °F 47.1 °F 29.6 in South 3.1 mph 6 mph 53% 0 in 62 W/m2
13:25 64.6 °F 47.1 °F 29.6 in South 3.1 mph 4.5 mph 53% 0 in 64 W/m2
13:30 64.2 °F 46.2 °F 29.6 in South 3.8 mph 5.4 mph 52% 0 in 66 W/m2
13:35 63.3 °F 45.9 °F 29.6 in South 3.8 mph 5.4 mph 53% 0 in 65 W/m2
13:40 63.5 °F 46.6 °F 29.6 in South 3.8 mph 5.4 mph 54% 0 in 68 W/m2
13:45 64.4 °F 47.5 °F 29.6 in South 3.8 mph 5.4 mph 54% 0 in 69 W/m2
13:50 63 °F 45.7 °F 29.6 in South 3.1 mph 6 mph 53% 0 in 62 W/m2
13:56 62.1 °F 45.7 °F 29.6 in South 2.2 mph 6 mph 55% 0 in 71 W/m2
14:01 62.6 °F 45.1 °F 29.6 in South 2.2 mph 6 mph 53% 0 in 58 W/m2
14:06 61.9 °F 45.1 °F 29.6 in South 3.1 mph 6 mph 54% 0 in 73 W/m2
14:11 62.4 °F 46 °F 29.6 in South 4.5 mph 6 mph 55% 0 in 74 W/m2
14:16 63.1 °F 46.2 °F 29.6 in South 3.1 mph 6 mph 54% 0 in 81 W/m2
14:21 63.9 °F 46.4 °F 29.6 in South 2.2 mph 6 mph 53% 0 in 70 W/m2
14:26 63.9 °F 46.9 °F 29.6 in South 2.2 mph 5.4 mph 54% 0 in 107 W/m2
14:32 64.6 °F 47.7 °F 29.6 in South 3.8 mph 6 mph 54% 0 in 164 W/m2
14:37 64.2 °F 47.1 °F 29.6 in South 3.1 mph 6 mph 54% 0 in 186 W/m2
14:42 65.5 °F 48.4 °F 29.6 in SSE 2.2 mph 5.4 mph 54% 0 in 186 W/m2
14:47 64.9 °F 46.9 °F 29.6 in SSE 3.1 mph 5.4 mph 52% 0 in 187 W/m2
14:52 64.8 °F 47.1 °F 29.6 in SSE 2.2 mph 5.4 mph 53% 0 in 174 W/m2
14:57 65.3 °F 47.1 °F 29.6 in SSE 2.2 mph 5.4 mph 52% 0 in 170 W/m2
15:02 65.3 °F 45.7 °F 29.6 in SSE 1.6 mph 4.5 mph 49% 0 in 164 W/m2
15:07 66 °F 46.9 °F 29.6 in SSE 1.6 mph 4.5 mph 50% 0 in 156 W/m2
15:12 66 °F 46.9 °F 29.6 in SSE 1.6 mph 3.8 mph 50% 0 in 149 W/m2
15:17 66.4 °F 46.8 °F 29.6 in SE 0.7 mph 3.8 mph 49% 0 in 143 W/m2
15:22 66.7 °F 45.9 °F 29.6 in SSE 0.7 mph 3.8 mph 47% 0 in 137 W/m2
15:27 66.9 °F 45.5 °F 29.6 in SSE 1.6 mph 3.8 mph 46% 0 in 131 W/m2
15:32 66.6 °F 44.6 °F 29.6 in SSE 0.7 mph 4.5 mph 45% 0 in 125 W/m2
15:37 67.3 °F 45.9 °F 29.6 in SE 2.2 mph 4.5 mph 46% 0 in 117 W/m2
15:42 66.7 °F 45.3 °F 29.6 in ESE 2.2 mph 3.8 mph 46% 0 in 110 W/m2
15:47 66.2 °F 44.2 °F 29.6 in ESE 1.6 mph 4.5 mph 45% 0 in 103 W/m2
15:52 65.3 °F 44.6 °F 29.6 in SE 2.2 mph 4.5 mph 47% 0 in 95 W/m2
15:57 65.3 °F 45.1 °F 29.6 in SE 1.6 mph 3.8 mph 48% 0 in 83 W/m2
16:02 65.5 °F 45.3 °F 29.6 in ESE 1.6 mph 3.8 mph 48% 0 in 70 W/m2
16:07 65.1 °F 43.9 °F 29.6 in ESE 1.6 mph 3.1 mph 46% 0 in 61 W/m2
16:12 65.1 °F 43.9 °F 29.6 in ESE 0.7 mph 3.1 mph 46% 0 in 54 W/m2
16:17 65.5 °F 43.5 °F 29.6 in East 1.6 mph 2.2 mph 45% 0 in 47 W/m2
16:22 65.3 °F 43.3 °F 29.6 in Calm   2.2 mph 45% 0 in 41 W/m2
16:27 65.8 °F 43.9 °F 29.6 in Calm   2.2 mph 45% 0 in 37 W/m2
16:33 66.4 °F 44.4 °F 29.6 in NE 3.1 mph 3.8 mph 45% 0 in 32 W/m2
16:38 63.5 °F 45.1 °F 29.6 in NE 2.2 mph 4.5 mph 51% 0 in 28 W/m2
16:43 62.1 °F 45.1 °F 29.6 in NE 1.6 mph 4.5 mph 54% 0 in 26 W/m2
16:48 61.7 °F 45.3 °F 29.6 in ENE 1.6 mph 3.1 mph 55% 0 in 24 W/m2
16:53 60.3 °F 45 °F 29.6 in ENE 1.6 mph 3.1 mph 57% 0 in 10 W/m2
16:58 58.6 °F 44.4 °F 29.6 in Calm   2.2 mph 59% 0 in 7 W/m2
17:03 56.7 °F 45 °F 29.6 in Calm   3.1 mph 65% 0 in 5 W/m2
17:08 55.8 °F 44.6 °F 29.7 in Calm   3.1 mph 66% 0 in 3 W/m2
17:13 55 °F 44.2 °F 29.7 in Calm   1.6 mph 67% 0 in 0 W/m2
17:18 54.3 °F 43.5 °F 29.7 in Calm   0.7 mph 67% 0 in 0 W/m2
17:23 53.8 °F 43.9 °F 29.7 in NE 0.7 mph 2.2 mph 69% 0 in 0 W/m2
17:28 53.2 °F 44.4 °F 29.6 in NE 0.7 mph 2.2 mph 72% 0 in 0 W/m2
17:33 53.1 °F 45 °F 29.7 in NNW 0.7 mph 2.2 mph 74% 0 in 0 W/m2
17:38 52.9 °F 44.8 °F 29.7 in Calm   2.2 mph 74% 0 in 0 W/m2
17:43 52.3 °F 44.2 °F 29.7 in Calm   1.6 mph 74% 0 in 0 W/m2
17:48 51.8 °F 43.9 °F 29.7 in Calm   0.7 mph 74% 0 in 0 W/m2
17:53 52 °F 44.2 °F 29.7 in North 0.7 mph 1.6 mph 75% 0 in 0 W/m2
17:58 51.6 °F 44.2 °F 29.7 in North 1.6 mph 2.2 mph 76% 0 in 0 W/m2
18:03 50.5 °F 43.9 °F 29.7 in NNW 2.2 mph 3.1 mph 78% 0 in 0 W/m2
18:08 50 °F 44.4 °F 29.7 in NNW 1.6 mph 3.1 mph 81% 0 in 0 W/m2
18:13 49.6 °F 45 °F 29.7 in NNW 2.2 mph 3.8 mph 84% 0 in 0 W/m2
18:18 49.3 °F 44.8 °F 29.7 in NW 2.2 mph 3.8 mph 84% 0 in 0 W/m2
18:23 49.1 °F 44.4 °F 29.7 in NNW 1.6 mph 3.1 mph 84% 0 in 0 W/m2
18:28 48.7 °F 44.4 °F 29.7 in North 2.2 mph 3.1 mph 85% 0 in 0 W/m2
18:33 48.4 °F 44.1 °F 29.7 in North 1.6 mph 3.1 mph 85% 0 in 0 W/m2
18:38 48 °F 44.1 °F 29.7 in NNW 1.6 mph 3.1 mph 86% 0 in 0 W/m2
18:43 47.8 °F 44.2 °F 29.7 in North 1.6 mph 3.1 mph 87% 0 in 0 W/m2
18:48 47.5 °F 43.9 °F 29.7 in NNE 1.6 mph 3.1 mph 87% 0 in 0 W/m2
19:07 47.1 °F 44.1 °F 29.7 in NNE 0.7 mph 3.1 mph 89% 0 in 0 W/m2
19:12 46.8 °F 43.7 °F 29.7 in NNW 2.2 mph 3.1 mph 89% 0 in 0 W/m2
19:17 46.8 °F 44.1 °F 29.7 in NW 1.6 mph 3.8 mph 90% 0 in 0 W/m2
19:22 46.6 °F 43.9 °F 29.7 in NNW 1.6 mph 3.8 mph 90% 0 in 0 W/m2
19:27 46.4 °F 43.5 °F 29.7 in NNW 1.6 mph 3.1 mph 90% 0 in 0 W/m2
19:32 46.2 °F 43.7 °F 29.7 in NNW 2.2 mph 3.1 mph 91% 0 in 0 W/m2
19:37 46.2 °F 44.1 °F 29.7 in North 2.2 mph 3.1 mph 92% 0 in 0 W/m2
19:42 46 °F 43.9 °F 29.7 in NNW 1.6 mph 3.8 mph 92% 0 in 0 W/m2
19:52 45.9 °F 43.7 °F 29.7 in North 2.2 mph 3.8 mph 92% 0 in 0 W/m2
19:57 45.7 °F 43.9 °F 29.7 in North 2.2 mph 3.8 mph 93% 0 in 0 W/m2
20:02 45.7 °F 43.9 °F 29.7 in North 1.6 mph 3.8 mph 93% 0 in 0 W/m2
20:07 45.7 °F 43.9 °F 29.7 in North 1.6 mph 3.8 mph 93% 0 in 0 W/m2
20:12 45.7 °F 43.9 °F 29.7 in North 1.6 mph 3.1 mph 93% 0 in 0 W/m2
20:17 45.7 °F 43.9 °F 29.7 in North 1.6 mph 2.2 mph 93% 0 in 0 W/m2
20:22 45.9 °F 44.2 °F 29.7 in North 2.2 mph 3.1 mph 94% 0 in 0 W/m2
20:27 45.9 °F 44.2 °F 29.7 in NNW 2.2 mph 3.8 mph 94% 0 in 0 W/m2
20:32 45.9 °F 44.2 °F 29.7 in North 2.2 mph 3.8 mph 94% 0 in 0 W/m2
20:37 46 °F 44.4 °F 29.7 in North 0.7 mph 3.8 mph 94% 0 in 0 W/m2
20:42 46 °F 44.4 °F 29.7 in North 2.2 mph 4.5 mph 94% 0 in 0 W/m2
20:47 46 °F 44.4 °F 29.7 in North 2.2 mph 4.5 mph 94% 0 in 0 W/m2
20:53 46 °F 44.4 °F 29.7 in NNW 3.1 mph 5.4 mph 94% 0 in 0 W/m2
20:58 46.2 °F 44.6 °F 29.7 in NW 3.8 mph 5.4 mph 94% 0 in 0 W/m2
21:03 46 °F 44.4 °F 29.7 in NNW 1.6 mph 5.4 mph 94% 0 in 0 W/m2
21:08 45.9 °F 44.2 °F 29.7 in North 2.2 mph 5.4 mph 94% 0 in 0 W/m2
21:13 45.9 °F 44.2 °F 29.7 in NNW 2.2 mph 4.5 mph 94% 0 in 0 W/m2
21:18 45.7 °F 44.1 °F 29.7 in NNW 2.2 mph 4.5 mph 94% 0 in 0 W/m2
21:23 45.7 °F 44.1 °F 29.7 in NNW 1.6 mph 3.8 mph 94% 0 in 0 W/m2
21:28 45.7 °F 44.1 °F 29.7 in NNW 2.2 mph 3.8 mph 94% 0 in 0 W/m2
21:33 45.5 °F 43.9 °F 29.7 in NNW 3.1 mph 4.5 mph 94% 0 in 0 W/m2
21:38 45.7 °F 44.2 °F 29.7 in NW 3.1 mph 4.5 mph 95% 0 in 0 W/m2
21:43 45.5 °F 44.2 °F 29.7 in NNW 1.6 mph 4.5 mph 95% 0 in 0 W/m2
21:48 45.5 °F 44.2 °F 29.7 in NNW 1.6 mph 3.8 mph 95% 0 in 0 W/m2
21:53 45.5 °F 44.2 °F 29.7 in NNW 2.2 mph 3.8 mph 95% 0 in 0 W/m2
21:58 45.7 °F 44.2 °F 29.7 in NW 3.8 mph 5.4 mph 95% 0 in 0 W/m2
22:03 45.9 °F 44.4 °F 29.7 in NW 2.2 mph 6 mph 95% 0 in 0 W/m2
22:08 45.9 °F 44.4 °F 29.7 in NW 2.2 mph 6 mph 95% 0 in 0 W/m2
22:13 45.9 °F 44.4 °F 29.7 in NW 2.2 mph 4.5 mph 95% 0 in 0 W/m2
22:18 46 °F 44.8 °F 29.7 in NW 2.2 mph 4.5 mph 95% 0 in 0 W/m2
22:23 46 °F 44.8 °F 29.7 in NNW 3.1 mph 4.5 mph 95% 0 in 0 W/m2
22:28 46 °F 44.8 °F 29.7 in NNW 3.1 mph 4.5 mph 95% 0 in 0 W/m2
22:33 46 °F 44.8 °F 29.7 in NNW 2.2 mph 4.5 mph 95% 0 in 0 W/m2
22:38 46 °F 44.8 °F 29.7 in NNW 2.2 mph 4.5 mph 95% 0 in 0 W/m2
22:43 46.2 °F 45 °F 29.7 in NNW 3.1 mph 5.4 mph 95% 0 in 0 W/m2
22:48 46.2 °F 45 °F 29.7 in NNW 2.2 mph 5.4 mph 95% 0 in 0 W/m2
22:53 46.2 °F 45 °F 29.7 in NNW 1.6 mph 4.5 mph 95% 0 in 0 W/m2
22:58 46.2 °F 45 °F 29.7 in NW 2.2 mph 4.5 mph 95% 0 in 0 W/m2
23:03 46.2 °F 45 °F 29.7 in NW 2.2 mph 5.4 mph 95% 0 in 0 W/m2
23:08 46.2 °F 45 °F 29.7 in NW 3.1 mph 5.4 mph 95% 0 in 0 W/m2
23:13 46 °F 44.8 °F 29.7 in NW 3.8 mph 6 mph 95% 0 in 0 W/m2
23:18 46 °F 44.8 °F 29.7 in NW 3.8 mph 6 mph 95% 0 in 0 W/m2
23:23 46 °F 44.8 °F 29.7 in NW 1.6 mph 6 mph 95% 0 in 0 W/m2
23:28 45.9 °F 44.4 °F 29.7 in NW 2.2 mph 5.4 mph 95% 0 in 0 W/m2
23:33 45.7 °F 44.2 °F 29.7 in NNW 3.1 mph 4.5 mph 95% 0 in 0 W/m2
23:38 45.7 °F 44.1 °F 29.7 in NNW 3.8 mph 5.4 mph 94% 0 in 0 W/m2
23:43 45.7 °F 44.1 °F 29.7 in NNW 2.2 mph 5.4 mph 94% 0 in 0 W/m2
23:48 45.5 °F 43.9 °F 29.7 in NW 2.2 mph 5.4 mph 94% 0 in 0 W/m2
23:53 45.5 °F 43.9 °F 29.7 in NW 2.2 mph 3.8 mph 94% 0 in 0 W/m2
23:58 45.5 °F 43.9 °F 29.7 in NW 3.1 mph 4.5 mph 94% 0 in 0 W/m2
Northern Hawkes Bay. New Zealand Historic Data
Compliments of Weather Underground - 2 mb